sensor_id;sensor_type;location;lat;lon;timestamp;P1;durP1;ratioP1;P2;durP2;ratioP2
9698;SDS011;10089;47.876;8.346;2022-12-18T00:02:04;22.87;;;11.07;;
9698;SDS011;10089;47.876;8.346;2022-12-18T00:04:30;22.97;;;11.87;;
9698;SDS011;10089;47.876;8.346;2022-12-18T00:06:56;21.17;;;12.20;;
9698;SDS011;10089;47.876;8.346;2022-12-18T00:09:22;25.67;;;12.50;;
9698;SDS011;10089;47.876;8.346;2022-12-18T00:11:48;23.33;;;12.53;;
9698;SDS011;10089;47.876;8.346;2022-12-18T00:14:14;18.27;;;10.90;;
9698;SDS011;10089;47.876;8.346;2022-12-18T00:16:42;20.93;;;12.13;;
9698;SDS011;10089;47.876;8.346;2022-12-18T00:19:10;18.60;;;11.30;;
9698;SDS011;10089;47.876;8.346;2022-12-18T00:21:40;30.33;;;13.13;;
9698;SDS011;10089;47.876;8.346;2022-12-18T00:24:07;32.40;;;13.97;;
9698;SDS011;10089;47.876;8.346;2022-12-18T00:26:33;38.57;;;14.80;;
9698;SDS011;10089;47.876;8.346;2022-12-18T00:29:02;23.00;;;11.43;;
9698;SDS011;10089;47.876;8.346;2022-12-18T00:31:29;27.67;;;11.60;;
9698;SDS011;10089;47.876;8.346;2022-12-18T00:33:56;45.03;;;17.43;;
9698;SDS011;10089;47.876;8.346;2022-12-18T00:36:23;72.30;;;23.70;;
9698;SDS011;10089;47.876;8.346;2022-12-18T00:38:52;73.00;;;24.43;;
9698;SDS011;10089;47.876;8.346;2022-12-18T00:41:20;58.87;;;19.90;;
9698;SDS011;10089;47.876;8.346;2022-12-18T00:44:05;49.27;;;20.07;;
9698;SDS011;10089;47.876;8.346;2022-12-18T00:46:32;76.53;;;26.60;;
9698;SDS011;10089;47.876;8.346;2022-12-18T00:48:58;110.70;;;19.17;;
9698;SDS011;10089;47.876;8.346;2022-12-18T00:51:24;77.03;;;25.80;;
9698;SDS011;10089;47.876;8.346;2022-12-18T00:53:51;81.83;;;26.97;;
9698;SDS011;10089;47.876;8.346;2022-12-18T00:56:17;64.17;;;19.50;;
9698;SDS011;10089;47.876;8.346;2022-12-18T00:58:43;192.43;;;47.73;;
9698;SDS011;10089;47.876;8.346;2022-12-18T01:01:09;37.10;;;17.70;;
9698;SDS011;10089;47.876;8.346;2022-12-18T01:03:35;40.43;;;17.03;;
9698;SDS011;10089;47.876;8.346;2022-12-18T01:06:05;113.13;;;27.17;;
9698;SDS011;10089;47.876;8.346;2022-12-18T01:08:32;114.13;;;30.83;;
9698;SDS011;10089;47.876;8.346;2022-12-18T01:10:58;146.43;;;30.83;;
9698;SDS011;10089;47.876;8.346;2022-12-18T01:13:24;222.97;;;49.07;;
9698;SDS011;10089;47.876;8.346;2022-12-18T01:15:50;180.43;;;48.20;;
9698;SDS011;10089;47.876;8.346;2022-12-18T01:18:16;65.93;;;23.03;;
9698;SDS011;10089;47.876;8.346;2022-12-18T01:20:42;86.97;;;27.63;;
9698;SDS011;10089;47.876;8.346;2022-12-18T01:23:07;60.63;;;22.03;;
9698;SDS011;10089;47.876;8.346;2022-12-18T01:25:35;62.30;;;22.07;;
9698;SDS011;10089;47.876;8.346;2022-12-18T01:28:01;68.43;;;22.07;;
9698;SDS011;10089;47.876;8.346;2022-12-18T01:30:27;98.47;;;31.37;;
9698;SDS011;10089;47.876;8.346;2022-12-18T01:32:53;70.30;;;25.67;;
9698;SDS011;10089;47.876;8.346;2022-12-18T01:35:19;87.40;;;29.00;;
9698;SDS011;10089;47.876;8.346;2022-12-18T01:37:44;65.23;;;22.77;;
9698;SDS011;10089;47.876;8.346;2022-12-18T01:40:10;94.57;;;28.57;;
9698;SDS011;10089;47.876;8.346;2022-12-18T01:42:37;91.83;;;28.27;;
9698;SDS011;10089;47.876;8.346;2022-12-18T01:47:43;122.00;;;32.63;;
9698;SDS011;10089;47.876;8.346;2022-12-18T01:50:16;89.37;;;30.53;;
9698;SDS011;10089;47.876;8.346;2022-12-18T01:52:46;132.63;;;40.20;;
9698;SDS011;10089;47.876;8.346;2022-12-18T01:55:25;95.73;;;29.30;;
9698;SDS011;10089;47.876;8.346;2022-12-18T01:57:55;74.50;;;28.50;;
9698;SDS011;10089;47.876;8.346;2022-12-18T02:00:23;138.43;;;39.43;;
9698;SDS011;10089;47.876;8.346;2022-12-18T02:02:51;107.47;;;34.00;;
9698;SDS011;10089;47.876;8.346;2022-12-18T02:05:18;66.43;;;25.07;;
9698;SDS011;10089;47.876;8.346;2022-12-18T02:10:42;78.80;;;26.77;;
9698;SDS011;10089;47.876;8.346;2022-12-18T02:13:14;96.63;;;34.57;;
9698;SDS011;10089;47.876;8.346;2022-12-18T02:16:00;87.20;;;27.87;;
9698;SDS011;10089;47.876;8.346;2022-12-18T02:18:47;99.53;;;26.00;;
9698;SDS011;10089;47.876;8.346;2022-12-18T02:26:38;81.27;;;26.43;;
9698;SDS011;10089;47.876;8.346;2022-12-18T02:29:20;90.83;;;29.07;;
9698;SDS011;10089;47.876;8.346;2022-12-18T02:31:53;75.30;;;23.07;;
9698;SDS011;10089;47.876;8.346;2022-12-18T02:34:24;84.60;;;23.37;;
9698;SDS011;10089;47.876;8.346;2022-12-18T02:36:53;116.70;;;24.50;;
9698;SDS011;10089;47.876;8.346;2022-12-18T02:39:21;94.53;;;26.33;;
9698;SDS011;10089;47.876;8.346;2022-12-18T02:41:50;75.00;;;23.43;;
9698;SDS011;10089;47.876;8.346;2022-12-18T02:44:16;99.33;;;25.00;;
9698;SDS011;10089;47.876;8.346;2022-12-18T02:46:51;83.03;;;25.73;;
9698;SDS011;10089;47.876;8.346;2022-12-18T02:51:55;90.60;;;24.93;;
9698;SDS011;10089;47.876;8.346;2022-12-18T02:57:40;110.70;;;25.30;;
9698;SDS011;10089;47.876;8.346;2022-12-18T03:00:18;94.90;;;25.37;;
9698;SDS011;10089;47.876;8.346;2022-12-18T03:02:58;98.97;;;25.40;;
9698;SDS011;10089;47.876;8.346;2022-12-18T03:05:31;172.53;;;26.70;;
9698;SDS011;10089;47.876;8.346;2022-12-18T03:08:03;88.70;;;24.13;;
9698;SDS011;10089;47.876;8.346;2022-12-18T03:10:35;128.77;;;28.30;;
9698;SDS011;10089;47.876;8.346;2022-12-18T03:13:08;107.50;;;27.83;;
9698;SDS011;10089;47.876;8.346;2022-12-18T03:15:42;177.23;;;30.57;;
9698;SDS011;10089;47.876;8.346;2022-12-18T03:18:29;106.80;;;25.83;;
9698;SDS011;10089;47.876;8.346;2022-12-18T03:21:12;104.43;;;27.53;;
9698;SDS011;10089;47.876;8.346;2022-12-18T03:23:44;98.40;;;26.63;;
9698;SDS011;10089;47.876;8.346;2022-12-18T03:26:14;86.47;;;27.83;;
9698;SDS011;10089;47.876;8.346;2022-12-18T03:28:45;87.00;;;27.10;;
9698;SDS011;10089;47.876;8.346;2022-12-18T03:31:16;101.47;;;29.30;;
9698;SDS011;10089;47.876;8.346;2022-12-18T03:33:46;130.80;;;32.70;;
9698;SDS011;10089;47.876;8.346;2022-12-18T03:36:17;164.83;;;28.33;;
9698;SDS011;10089;47.876;8.346;2022-12-18T03:38:43;145.57;;;32.53;;
9698;SDS011;10089;47.876;8.346;2022-12-18T03:43:55;108.77;;;29.60;;
9698;SDS011;10089;47.876;8.346;2022-12-18T03:46:28;111.00;;;30.23;;
9698;SDS011;10089;47.876;8.346;2022-12-18T03:49:05;104.40;;;29.57;;
9698;SDS011;10089;47.876;8.346;2022-12-18T03:51:41;99.50;;;29.27;;
9698;SDS011;10089;47.876;8.346;2022-12-18T03:54:12;99.03;;;28.60;;
9698;SDS011;10089;47.876;8.346;2022-12-18T03:56:40;95.77;;;29.00;;
9698;SDS011;10089;47.876;8.346;2022-12-18T03:59:12;104.00;;;31.57;;
9698;SDS011;10089;47.876;8.346;2022-12-18T04:01:42;92.37;;;27.87;;
9698;SDS011;10089;47.876;8.346;2022-12-18T04:04:11;100.60;;;31.33;;
9698;SDS011;10089;47.876;8.346;2022-12-18T04:06:39;97.23;;;29.70;;
9698;SDS011;10089;47.876;8.346;2022-12-18T04:09:06;92.10;;;29.50;;
9698;SDS011;10089;47.876;8.346;2022-12-18T04:11:34;102.60;;;29.53;;
9698;SDS011;10089;47.876;8.346;2022-12-18T04:14:00;133.57;;;29.33;;
9698;SDS011;10089;47.876;8.346;2022-12-18T04:16:25;104.50;;;29.60;;
9698;SDS011;10089;47.876;8.346;2022-12-18T04:18:52;115.13;;;30.80;;
9698;SDS011;10089;47.876;8.346;2022-12-18T04:21:19;117.03;;;27.80;;
9698;SDS011;10089;47.876;8.346;2022-12-18T04:23:45;161.30;;;31.20;;
9698;SDS011;10089;47.876;8.346;2022-12-18T04:26:11;102.43;;;28.10;;
9698;SDS011;10089;47.876;8.346;2022-12-18T04:28:37;85.53;;;27.57;;
9698;SDS011;10089;47.876;8.346;2022-12-18T04:31:03;130.87;;;29.10;;
9698;SDS011;10089;47.876;8.346;2022-12-18T04:33:28;158.60;;;28.37;;
9698;SDS011;10089;47.876;8.346;2022-12-18T04:35:54;161.57;;;28.87;;
9698;SDS011;10089;47.876;8.346;2022-12-18T04:38:20;133.60;;;32.73;;
9698;SDS011;10089;47.876;8.346;2022-12-18T04:40:45;151.43;;;30.67;;
9698;SDS011;10089;47.876;8.346;2022-12-18T04:43:11;135.53;;;29.43;;
9698;SDS011;10089;47.876;8.346;2022-12-18T04:45:37;121.00;;;30.37;;
9698;SDS011;10089;47.876;8.346;2022-12-18T04:48:03;132.10;;;30.27;;
9698;SDS011;10089;47.876;8.346;2022-12-18T04:50:29;198.67;;;33.93;;
9698;SDS011;10089;47.876;8.346;2022-12-18T04:52:56;121.47;;;29.90;;
9698;SDS011;10089;47.876;8.346;2022-12-18T04:55:22;152.63;;;32.07;;
9698;SDS011;10089;47.876;8.346;2022-12-18T04:57:49;94.90;;;27.90;;
9698;SDS011;10089;47.876;8.346;2022-12-18T05:00:15;105.57;;;29.03;;
9698;SDS011;10089;47.876;8.346;2022-12-18T05:02:41;95.03;;;29.67;;
9698;SDS011;10089;47.876;8.346;2022-12-18T05:05:07;119.77;;;32.40;;
9698;SDS011;10089;47.876;8.346;2022-12-18T05:07:33;113.47;;;30.40;;
9698;SDS011;10089;47.876;8.346;2022-12-18T05:09:59;99.17;;;30.90;;
9698;SDS011;10089;47.876;8.346;2022-12-18T05:12:24;105.13;;;31.27;;
9698;SDS011;10089;47.876;8.346;2022-12-18T05:14:50;94.00;;;29.90;;
9698;SDS011;10089;47.876;8.346;2022-12-18T05:17:16;111.27;;;31.47;;
9698;SDS011;10089;47.876;8.346;2022-12-18T05:19:42;97.90;;;31.77;;
9698;SDS011;10089;47.876;8.346;2022-12-18T05:22:08;115.90;;;32.20;;
9698;SDS011;10089;47.876;8.346;2022-12-18T05:24:34;113.57;;;33.27;;
9698;SDS011;10089;47.876;8.346;2022-12-18T05:27:00;94.17;;;30.17;;
9698;SDS011;10089;47.876;8.346;2022-12-18T05:29:26;96.57;;;28.97;;
9698;SDS011;10089;47.876;8.346;2022-12-18T05:31:52;104.40;;;30.20;;
9698;SDS011;10089;47.876;8.346;2022-12-18T05:34:17;93.20;;;30.70;;
9698;SDS011;10089;47.876;8.346;2022-12-18T05:36:43;89.63;;;29.40;;
9698;SDS011;10089;47.876;8.346;2022-12-18T05:39:09;100.23;;;31.10;;
9698;SDS011;10089;47.876;8.346;2022-12-18T05:41:34;86.00;;;29.10;;
9698;SDS011;10089;47.876;8.346;2022-12-18T05:44:00;89.43;;;28.63;;
9698;SDS011;10089;47.876;8.346;2022-12-18T05:46:26;89.13;;;27.83;;
9698;SDS011;10089;47.876;8.346;2022-12-18T05:48:52;85.43;;;27.70;;
9698;SDS011;10089;47.876;8.346;2022-12-18T05:54:58;88.03;;;27.33;;
9698;SDS011;10089;47.876;8.346;2022-12-18T05:57:24;88.77;;;28.73;;
9698;SDS011;10089;47.876;8.346;2022-12-18T05:59:50;73.47;;;28.03;;
9698;SDS011;10089;47.876;8.346;2022-12-18T06:02:15;88.23;;;28.77;;
9698;SDS011;10089;47.876;8.346;2022-12-18T06:04:41;99.23;;;29.10;;
9698;SDS011;10089;47.876;8.346;2022-12-18T06:07:07;95.00;;;28.97;;
9698;SDS011;10089;47.876;8.346;2022-12-18T06:09:33;117.30;;;28.27;;
9698;SDS011;10089;47.876;8.346;2022-12-18T06:11:59;83.27;;;28.47;;
9698;SDS011;10089;47.876;8.346;2022-12-18T06:14:24;99.90;;;30.17;;
9698;SDS011;10089;47.876;8.346;2022-12-18T06:16:50;91.47;;;28.13;;
9698;SDS011;10089;47.876;8.346;2022-12-18T06:19:17;97.53;;;29.60;;
9698;SDS011;10089;47.876;8.346;2022-12-18T06:21:43;170.93;;;33.17;;
9698;SDS011;10089;47.876;8.346;2022-12-18T06:24:08;125.03;;;28.83;;
9698;SDS011;10089;47.876;8.346;2022-12-18T06:26:36;233.70;;;34.37;;
9698;SDS011;10089;47.876;8.346;2022-12-18T06:29:03;264.43;;;33.53;;
9698;SDS011;10089;47.876;8.346;2022-12-18T06:31:30;124.97;;;30.47;;
9698;SDS011;10089;47.876;8.346;2022-12-18T06:33:55;129.57;;;30.90;;
9698;SDS011;10089;47.876;8.346;2022-12-18T06:36:21;138.90;;;28.50;;
9698;SDS011;10089;47.876;8.346;2022-12-18T06:38:47;107.80;;;30.43;;
9698;SDS011;10089;47.876;8.346;2022-12-18T06:41:14;163.37;;;31.30;;
9698;SDS011;10089;47.876;8.346;2022-12-18T06:43:41;213.13;;;31.93;;
9698;SDS011;10089;47.876;8.346;2022-12-18T06:46:07;129.00;;;29.70;;
9698;SDS011;10089;47.876;8.346;2022-12-18T06:48:33;163.20;;;30.73;;
9698;SDS011;10089;47.876;8.346;2022-12-18T06:50:59;106.73;;;28.73;;
9698;SDS011;10089;47.876;8.346;2022-12-18T06:53:25;87.20;;;28.17;;
9698;SDS011;10089;47.876;8.346;2022-12-18T06:55:51;90.00;;;28.63;;
9698;SDS011;10089;47.876;8.346;2022-12-18T06:58:17;121.37;;;29.47;;
9698;SDS011;10089;47.876;8.346;2022-12-18T07:00:43;144.23;;;30.63;;
9698;SDS011;10089;47.876;8.346;2022-12-18T07:03:10;129.00;;;27.90;;
9698;SDS011;10089;47.876;8.346;2022-12-18T07:05:39;167.80;;;32.53;;
9698;SDS011;10089;47.876;8.346;2022-12-18T07:08:06;102.63;;;29.27;;
9698;SDS011;10089;47.876;8.346;2022-12-18T07:10:31;94.67;;;29.97;;
9698;SDS011;10089;47.876;8.346;2022-12-18T07:12:57;148.30;;;31.47;;
9698;SDS011;10089;47.876;8.346;2022-12-18T07:15:23;163.60;;;31.60;;
9698;SDS011;10089;47.876;8.346;2022-12-18T07:17:48;151.53;;;28.67;;
9698;SDS011;10089;47.876;8.346;2022-12-18T07:20:14;108.73;;;30.53;;
9698;SDS011;10089;47.876;8.346;2022-12-18T07:22:40;96.43;;;31.10;;
9698;SDS011;10089;47.876;8.346;2022-12-18T07:25:06;90.97;;;31.40;;
9698;SDS011;10089;47.876;8.346;2022-12-18T07:27:32;182.30;;;31.47;;
9698;SDS011;10089;47.876;8.346;2022-12-18T07:29:59;89.90;;;29.67;;
9698;SDS011;10089;47.876;8.346;2022-12-18T07:32:25;128.37;;;32.13;;
9698;SDS011;10089;47.876;8.346;2022-12-18T07:34:51;92.80;;;29.30;;
9698;SDS011;10089;47.876;8.346;2022-12-18T07:37:17;108.07;;;30.30;;
9698;SDS011;10089;47.876;8.346;2022-12-18T07:39:42;101.87;;;29.67;;
9698;SDS011;10089;47.876;8.346;2022-12-18T07:42:08;84.03;;;27.73;;
9698;SDS011;10089;47.876;8.346;2022-12-18T07:44:52;107.40;;;28.90;;
9698;SDS011;10089;47.876;8.346;2022-12-18T07:47:18;82.23;;;27.73;;
9698;SDS011;10089;47.876;8.346;2022-12-18T07:49:43;93.30;;;28.23;;
9698;SDS011;10089;47.876;8.346;2022-12-18T07:52:09;101.17;;;28.03;;
9698;SDS011;10089;47.876;8.346;2022-12-18T07:54:37;83.90;;;28.60;;
9698;SDS011;10089;47.876;8.346;2022-12-18T07:57:03;91.43;;;29.23;;
9698;SDS011;10089;47.876;8.346;2022-12-18T07:59:29;82.40;;;28.57;;
9698;SDS011;10089;47.876;8.346;2022-12-18T08:01:54;108.53;;;29.40;;
9698;SDS011;10089;47.876;8.346;2022-12-18T08:04:20;78.00;;;26.73;;
9698;SDS011;10089;47.876;8.346;2022-12-18T08:06:46;112.00;;;29.13;;
9698;SDS011;10089;47.876;8.346;2022-12-18T08:09:12;72.77;;;26.77;;
9698;SDS011;10089;47.876;8.346;2022-12-18T13:49:43;51.67;;;22.30;;
9698;SDS011;10089;47.876;8.346;2022-12-18T13:52:18;60.13;;;23.43;;
9698;SDS011;10089;47.876;8.346;2022-12-18T13:54:48;50.90;;;24.47;;
9698;SDS011;10089;47.876;8.346;2022-12-18T13:59:52;53.30;;;22.13;;
9698;SDS011;10089;47.876;8.346;2022-12-18T14:02:21;50.90;;;22.90;;
9698;SDS011;10089;47.876;8.346;2022-12-18T14:04:52;55.73;;;23.53;;
9698;SDS011;10089;47.876;8.346;2022-12-18T14:09:50;58.63;;;24.07;;
9698;SDS011;10089;47.876;8.346;2022-12-18T14:12:22;65.50;;;26.80;;
9698;SDS011;10089;47.876;8.346;2022-12-18T14:15:31;56.17;;;23.10;;
9698;SDS011;10089;47.876;8.346;2022-12-18T14:18:19;55.70;;;24.43;;
9698;SDS011;10089;47.876;8.346;2022-12-18T14:20:51;50.53;;;23.70;;
9698;SDS011;10089;47.876;8.346;2022-12-18T14:23:28;59.23;;;27.03;;
9698;SDS011;10089;47.876;8.346;2022-12-18T14:25:54;57.70;;;25.27;;
9698;SDS011;10089;47.876;8.346;2022-12-18T14:28:20;57.60;;;22.10;;
9698;SDS011;10089;47.876;8.346;2022-12-18T14:30:49;49.90;;;22.50;;
9698;SDS011;10089;47.876;8.346;2022-12-18T14:33:19;49.27;;;21.10;;
9698;SDS011;10089;47.876;8.346;2022-12-18T14:36:02;47.07;;;22.43;;
9698;SDS011;10089;47.876;8.346;2022-12-18T14:38:39;61.80;;;25.67;;
9698;SDS011;10089;47.876;8.346;2022-12-18T14:41:15;61.40;;;24.13;;
9698;SDS011;10089;47.876;8.346;2022-12-18T14:43:43;54.20;;;23.83;;
9698;SDS011;10089;47.876;8.346;2022-12-18T14:46:30;46.57;;;22.43;;
9698;SDS011;10089;47.876;8.346;2022-12-18T14:49:00;53.40;;;22.97;;
9698;SDS011;10089;47.876;8.346;2022-12-18T14:51:48;49.97;;;21.30;;
9698;SDS011;10089;47.876;8.346;2022-12-18T14:54:18;56.73;;;21.93;;
9698;SDS011;10089;47.876;8.346;2022-12-18T14:56:49;58.40;;;24.30;;
9698;SDS011;10089;47.876;8.346;2022-12-18T14:59:23;52.20;;;21.30;;
9698;SDS011;10089;47.876;8.346;2022-12-18T15:04:41;67.87;;;26.17;;
9698;SDS011;10089;47.876;8.346;2022-12-18T15:07:18;61.73;;;27.30;;
9698;SDS011;10089;47.876;8.346;2022-12-18T15:10:07;54.43;;;23.13;;
9698;SDS011;10089;47.876;8.346;2022-12-18T15:12:46;54.33;;;23.93;;
9698;SDS011;10089;47.876;8.346;2022-12-18T15:20:50;52.37;;;21.50;;
9698;SDS011;10089;47.876;8.346;2022-12-18T15:26:08;65.90;;;22.63;;
9698;SDS011;10089;47.876;8.346;2022-12-18T15:28:46;71.83;;;23.80;;
9698;SDS011;10089;47.876;8.346;2022-12-18T15:36:10;61.63;;;23.90;;
9698;SDS011;10089;47.876;8.346;2022-12-18T15:38:39;58.40;;;21.70;;
9698;SDS011;10089;47.876;8.346;2022-12-18T15:41:11;67.20;;;25.83;;
9698;SDS011;10089;47.876;8.346;2022-12-18T15:43:39;68.70;;;25.90;;
9698;SDS011;10089;47.876;8.346;2022-12-18T15:46:18;62.00;;;25.37;;
9698;SDS011;10089;47.876;8.346;2022-12-18T15:48:46;62.77;;;23.97;;
9698;SDS011;10089;47.876;8.346;2022-12-18T15:51:15;67.00;;;24.90;;
9698;SDS011;10089;47.876;8.346;2022-12-18T15:53:41;64.57;;;24.30;;
9698;SDS011;10089;47.876;8.346;2022-12-18T15:56:11;69.07;;;24.40;;
9698;SDS011;10089;47.876;8.346;2022-12-18T15:58:57;58.10;;;24.50;;
9698;SDS011;10089;47.876;8.346;2022-12-18T16:01:24;65.60;;;24.37;;
9698;SDS011;10089;47.876;8.346;2022-12-18T16:03:51;62.63;;;23.40;;
9698;SDS011;10089;47.876;8.346;2022-12-18T16:06:18;80.10;;;24.73;;
9698;SDS011;10089;47.876;8.346;2022-12-18T16:08:44;62.57;;;24.67;;
9698;SDS011;10089;47.876;8.346;2022-12-18T16:11:16;121.57;;;26.20;;
9698;SDS011;10089;47.876;8.346;2022-12-18T16:16:52;58.70;;;24.63;;
9698;SDS011;10089;47.876;8.346;2022-12-18T16:19:20;64.40;;;25.00;;
9698;SDS011;10089;47.876;8.346;2022-12-18T16:21:46;66.77;;;24.27;;
9698;SDS011;10089;47.876;8.346;2022-12-18T16:24:16;72.00;;;24.77;;
9698;SDS011;10089;47.876;8.346;2022-12-18T16:26:43;71.63;;;24.67;;
9698;SDS011;10089;47.876;8.346;2022-12-18T16:29:10;72.10;;;24.00;;
9698;SDS011;10089;47.876;8.346;2022-12-18T16:31:36;94.83;;;26.07;;
9698;SDS011;10089;47.876;8.346;2022-12-18T16:34:19;94.20;;;26.53;;
9698;SDS011;10089;47.876;8.346;2022-12-18T16:36:51;74.73;;;25.40;;
9698;SDS011;10089;47.876;8.346;2022-12-18T16:39:18;121.17;;;26.57;;
9698;SDS011;10089;47.876;8.346;2022-12-18T16:41:45;73.60;;;24.63;;
9698;SDS011;10089;47.876;8.346;2022-12-18T16:44:11;79.93;;;26.83;;
9698;SDS011;10089;47.876;8.346;2022-12-18T16:46:37;74.00;;;25.93;;
9698;SDS011;10089;47.876;8.346;2022-12-18T16:49:04;75.13;;;26.97;;
9698;SDS011;10089;47.876;8.346;2022-12-18T16:51:35;89.63;;;25.47;;
9698;SDS011;10089;47.876;8.346;2022-12-18T16:54:21;103.40;;;28.47;;
9698;SDS011;10089;47.876;8.346;2022-12-18T16:56:47;74.13;;;26.33;;
9698;SDS011;10089;47.876;8.346;2022-12-18T16:59:15;73.33;;;26.40;;
9698;SDS011;10089;47.876;8.346;2022-12-18T17:01:41;68.70;;;27.10;;
9698;SDS011;10089;47.876;8.346;2022-12-18T17:04:07;70.67;;;27.03;;
9698;SDS011;10089;47.876;8.346;2022-12-18T17:06:34;68.03;;;25.23;;
9698;SDS011;10089;47.876;8.346;2022-12-18T17:09:07;65.80;;;25.40;;
9698;SDS011;10089;47.876;8.346;2022-12-18T17:11:36;72.07;;;27.60;;
9698;SDS011;10089;47.876;8.346;2022-12-18T17:14:06;75.43;;;28.13;;
9698;SDS011;10089;47.876;8.346;2022-12-18T17:16:34;69.67;;;26.47;;
9698;SDS011;10089;47.876;8.346;2022-12-18T17:18:59;84.57;;;27.27;;
9698;SDS011;10089;47.876;8.346;2022-12-18T17:21:25;74.63;;;26.83;;
9698;SDS011;10089;47.876;8.346;2022-12-18T17:23:51;78.10;;;28.27;;
9698;SDS011;10089;47.876;8.346;2022-12-18T17:26:17;80.10;;;28.00;;
9698;SDS011;10089;47.876;8.346;2022-12-18T17:28:43;72.97;;;26.33;;
9698;SDS011;10089;47.876;8.346;2022-12-18T17:31:09;72.03;;;25.93;;
9698;SDS011;10089;47.876;8.346;2022-12-18T17:33:36;69.97;;;26.53;;
9698;SDS011;10089;47.876;8.346;2022-12-18T17:36:02;64.87;;;27.50;;
9698;SDS011;10089;47.876;8.346;2022-12-18T17:38:28;61.67;;;24.97;;
9698;SDS011;10089;47.876;8.346;2022-12-18T17:40:54;66.73;;;25.17;;
9698;SDS011;10089;47.876;8.346;2022-12-18T17:43:28;69.30;;;25.83;;
9698;SDS011;10089;47.876;8.346;2022-12-18T17:45:54;61.60;;;24.23;;
9698;SDS011;10089;47.876;8.346;2022-12-18T17:48:20;58.03;;;25.17;;
9698;SDS011;10089;47.876;8.346;2022-12-18T17:50:46;64.37;;;26.17;;
9698;SDS011;10089;47.876;8.346;2022-12-18T17:53:12;71.97;;;26.27;;
9698;SDS011;10089;47.876;8.346;2022-12-18T17:55:37;52.83;;;23.30;;
9698;SDS011;10089;47.876;8.346;2022-12-18T17:58:03;70.87;;;28.97;;
9698;SDS011;10089;47.876;8.346;2022-12-18T18:00:29;64.10;;;27.67;;
9698;SDS011;10089;47.876;8.346;2022-12-18T18:02:55;72.70;;;27.37;;
9698;SDS011;10089;47.876;8.346;2022-12-18T18:05:21;56.97;;;24.70;;
9698;SDS011;10089;47.876;8.346;2022-12-18T18:07:47;67.23;;;25.30;;
9698;SDS011;10089;47.876;8.346;2022-12-18T18:10:13;63.70;;;25.13;;
9698;SDS011;10089;47.876;8.346;2022-12-18T18:12:39;66.97;;;25.67;;
9698;SDS011;10089;47.876;8.346;2022-12-18T18:15:24;72.43;;;28.17;;
9698;SDS011;10089;47.876;8.346;2022-12-18T18:17:49;66.63;;;26.60;;
9698;SDS011;10089;47.876;8.346;2022-12-18T18:20:15;71.83;;;26.90;;
9698;SDS011;10089;47.876;8.346;2022-12-18T18:22:41;73.90;;;26.23;;
9698;SDS011;10089;47.876;8.346;2022-12-18T18:25:07;95.50;;;44.73;;
9698;SDS011;10089;47.876;8.346;2022-12-18T18:27:33;77.57;;;27.53;;
9698;SDS011;10089;47.876;8.346;2022-12-18T18:29:59;71.07;;;26.57;;
9698;SDS011;10089;47.876;8.346;2022-12-18T18:32:25;65.27;;;26.07;;
9698;SDS011;10089;47.876;8.346;2022-12-18T18:34:51;80.07;;;29.60;;
9698;SDS011;10089;47.876;8.346;2022-12-18T18:37:17;76.20;;;26.67;;
9698;SDS011;10089;47.876;8.346;2022-12-18T18:39:42;81.33;;;27.23;;
9698;SDS011;10089;47.876;8.346;2022-12-18T18:42:08;71.33;;;28.23;;
9698;SDS011;10089;47.876;8.346;2022-12-18T18:44:35;66.63;;;27.10;;
9698;SDS011;10089;47.876;8.346;2022-12-18T18:47:01;72.33;;;27.40;;
9698;SDS011;10089;47.876;8.346;2022-12-18T18:49:27;66.87;;;25.77;;
9698;SDS011;10089;47.876;8.346;2022-12-18T18:51:54;70.97;;;28.13;;
9698;SDS011;10089;47.876;8.346;2022-12-18T18:54:20;65.83;;;26.37;;
9698;SDS011;10089;47.876;8.346;2022-12-18T18:56:49;66.77;;;26.13;;
9698;SDS011;10089;47.876;8.346;2022-12-18T18:59:16;62.93;;;24.53;;
9698;SDS011;10089;47.876;8.346;2022-12-18T19:01:42;65.87;;;26.23;;
9698;SDS011;10089;47.876;8.346;2022-12-18T19:04:08;61.40;;;23.87;;
9698;SDS011;10089;47.876;8.346;2022-12-18T19:06:34;61.30;;;23.70;;
9698;SDS011;10089;47.876;8.346;2022-12-18T19:09:00;64.47;;;25.23;;
9698;SDS011;10089;47.876;8.346;2022-12-18T19:11:27;68.77;;;24.67;;
9698;SDS011;10089;47.876;8.346;2022-12-18T19:14:12;74.00;;;25.77;;
9698;SDS011;10089;47.876;8.346;2022-12-18T19:16:39;75.67;;;28.13;;
9698;SDS011;10089;47.876;8.346;2022-12-18T19:19:06;75.10;;;27.37;;
9698;SDS011;10089;47.876;8.346;2022-12-18T19:21:32;77.00;;;28.43;;
9698;SDS011;10089;47.876;8.346;2022-12-18T19:23:59;68.23;;;25.30;;
9698;SDS011;10089;47.876;8.346;2022-12-18T19:26:26;68.60;;;28.53;;
9698;SDS011;10089;47.876;8.346;2022-12-18T19:29:02;81.00;;;28.47;;
9698;SDS011;10089;47.876;8.346;2022-12-18T19:31:30;77.73;;;28.60;;
9698;SDS011;10089;47.876;8.346;2022-12-18T19:33:57;69.00;;;28.80;;
9698;SDS011;10089;47.876;8.346;2022-12-18T19:36:24;85.57;;;33.17;;
9698;SDS011;10089;47.876;8.346;2022-12-18T19:38:53;92.53;;;34.20;;
9698;SDS011;10089;47.876;8.346;2022-12-18T19:41:21;91.53;;;36.00;;
9698;SDS011;10089;47.876;8.346;2022-12-18T19:43:48;90.40;;;34.90;;
9698;SDS011;10089;47.876;8.346;2022-12-18T19:46:16;86.20;;;31.00;;
9698;SDS011;10089;47.876;8.346;2022-12-18T19:48:43;95.80;;;31.93;;
9698;SDS011;10089;47.876;8.346;2022-12-18T19:51:13;91.40;;;32.53;;
9698;SDS011;10089;47.876;8.346;2022-12-18T19:53:41;85.57;;;30.70;;
9698;SDS011;10089;47.876;8.346;2022-12-18T19:56:09;85.30;;;32.03;;
9698;SDS011;10089;47.876;8.346;2022-12-18T19:58:37;96.70;;;33.53;;
9698;SDS011;10089;47.876;8.346;2022-12-18T20:01:03;95.33;;;31.10;;
9698;SDS011;10089;47.876;8.346;2022-12-18T20:03:29;93.33;;;34.10;;
9698;SDS011;10089;47.876;8.346;2022-12-18T20:05:55;91.20;;;33.80;;
9698;SDS011;10089;47.876;8.346;2022-12-18T20:08:39;87.60;;;32.50;;
9698;SDS011;10089;47.876;8.346;2022-12-18T20:11:05;85.77;;;32.00;;
9698;SDS011;10089;47.876;8.346;2022-12-18T20:13:31;107.27;;;33.27;;
9698;SDS011;10089;47.876;8.346;2022-12-18T20:15:57;86.93;;;30.63;;
9698;SDS011;10089;47.876;8.346;2022-12-18T20:18:23;91.50;;;32.83;;
9698;SDS011;10089;47.876;8.346;2022-12-18T20:20:50;100.53;;;32.47;;
9698;SDS011;10089;47.876;8.346;2022-12-18T20:23:15;95.07;;;33.03;;
9698;SDS011;10089;47.876;8.346;2022-12-18T20:25:42;86.77;;;32.03;;
9698;SDS011;10089;47.876;8.346;2022-12-18T20:28:08;85.03;;;31.63;;
9698;SDS011;10089;47.876;8.346;2022-12-18T20:30:34;89.00;;;32.63;;
9698;SDS011;10089;47.876;8.346;2022-12-18T20:33:00;85.47;;;33.07;;
9698;SDS011;10089;47.876;8.346;2022-12-18T20:35:26;101.43;;;33.53;;
9698;SDS011;10089;47.876;8.346;2022-12-18T20:37:55;79.77;;;30.40;;
9698;SDS011;10089;47.876;8.346;2022-12-18T20:40:21;94.20;;;32.27;;
9698;SDS011;10089;47.876;8.346;2022-12-18T20:42:47;95.07;;;32.43;;
9698;SDS011;10089;47.876;8.346;2022-12-18T20:45:13;90.77;;;33.03;;
9698;SDS011;10089;47.876;8.346;2022-12-18T20:47:39;91.73;;;31.23;;
9698;SDS011;10089;47.876;8.346;2022-12-18T20:50:05;97.07;;;34.60;;
9698;SDS011;10089;47.876;8.346;2022-12-18T20:52:31;83.53;;;30.70;;
9698;SDS011;10089;47.876;8.346;2022-12-18T20:54:57;84.93;;;31.73;;
9698;SDS011;10089;47.876;8.346;2022-12-18T20:57:23;85.73;;;31.53;;
9698;SDS011;10089;47.876;8.346;2022-12-18T20:59:49;82.97;;;32.67;;
9698;SDS011;10089;47.876;8.346;2022-12-18T21:02:14;91.83;;;33.87;;
9698;SDS011;10089;47.876;8.346;2022-12-18T21:04:40;92.57;;;31.77;;